Terminal Aerodrome Forecast
Issued by NWS Cleveland, OH

Home | Current Version | Previous Version | Graphics & Text | Print | Product List | Glossary Off
Versions: 1 2 3 4 5 6 7 8 9 10 11 12 13 14 15 16 17 18 19 20 21 22 23 24 25 26

796
FTUS41 KCLE 132341
TAFCLE
TAF
KCLE 132341Z 1400/1506 30010KT P6SM VCSH SCT030 BKN035
      TEMPO 1400/1403 3SM -SN BKN030 BKN035
     FM140500 27007KT P6SM BKN035
     FM141800 16006KT P6SM BKN035 OVC120
     FM150400 15010KT P6SM -SN BKN035 OVC120=

USA.gov is the U.S. government's official web portal to all federal, state and local government web resources and services.